createdAt,value
2022-08-20T00:00:20.131Z,18.93
2022-08-20T00:02:50.707Z,17.13
2022-08-20T00:05:22.839Z,18.30
2022-08-20T00:07:50.568Z,19.10
2022-08-20T00:10:18.921Z,16.50
2022-08-20T00:12:48.784Z,16.70
2022-08-20T00:15:21.711Z,14.17
2022-08-20T00:17:50.505Z,14.10
2022-08-20T00:20:20.094Z,14.43
2022-08-20T00:22:48.216Z,14.40
2022-08-20T00:25:16.303Z,13.60
2022-08-20T00:27:44.171Z,14.43
2022-08-20T00:30:13.719Z,13.33
2022-08-20T00:32:47.407Z,11.77
2022-08-20T00:35:16.164Z,14.20
2022-08-20T00:37:43.940Z,12.93
2022-08-20T00:40:22.105Z,13.23
2022-08-20T00:42:52.139Z,16.23
2022-08-20T00:45:21.545Z,17.07
2022-08-20T00:47:51.270Z,13.13
2022-08-20T00:50:23.858Z,12.70
2022-08-20T00:52:53.022Z,12.93
2022-08-20T00:55:22.672Z,13.13
2022-08-20T00:58:01.503Z,12.67
2022-08-20T01:00:32.094Z,16.20
2022-08-20T01:03:02.108Z,12.57
2022-08-20T01:05:30.327Z,16.97
2022-08-20T01:07:58.218Z,12.13
2022-08-20T01:10:28.137Z,12.33
2022-08-20T01:12:59.636Z,12.67
2022-08-20T01:15:30.943Z,11.30
2022-08-20T01:18:00.876Z,12.63
2022-08-20T01:20:31.161Z,12.40
2022-08-20T01:23:19.991Z,13.23
2022-08-20T01:25:50.702Z,11.60
2022-08-20T01:28:21.014Z,11.97
2022-08-20T01:30:48.793Z,11.23
2022-08-20T01:33:18.568Z,12.93
2022-08-20T01:35:46.652Z,11.10
2022-08-20T01:38:14.298Z,11.60
2022-08-20T01:41:01.456Z,11.60
2022-08-20T01:43:28.989Z,11.20
2022-08-20T01:46:00.138Z,10.53
2022-08-20T01:48:28.313Z,8.83
2022-08-20T01:51:02.045Z,10.33
2022-08-20T01:53:34.087Z,8.53
2022-08-20T01:56:04.108Z,9.27
2022-08-20T01:58:32.350Z,7.73
2022-08-20T02:00:59.888Z,12.37
2022-08-20T02:03:27.499Z,11.10
2022-08-20T02:05:55.038Z,8.27
2022-08-20T02:08:23.384Z,7.00
2022-08-20T02:10:51.096Z,7.57
2022-08-20T02:13:19.934Z,9.70
2022-08-20T02:15:47.532Z,9.00
2022-08-20T02:18:16.951Z,7.93
2022-08-20T02:20:45.930Z,9.53
2022-08-20T02:23:15.464Z,6.83
2022-08-20T02:25:45.322Z,14.60
2022-08-20T02:28:15.234Z,8.13
2022-08-20T02:30:47.095Z,7.83
2022-08-20T02:33:17.791Z,7.00
2022-08-20T02:35:47.790Z,8.57
2022-08-20T02:38:15.814Z,8.93
2022-08-20T02:40:46.308Z,10.20
2022-08-20T02:43:14.447Z,7.80
2022-08-20T02:45:44.506Z,9.97
2022-08-20T02:48:20.878Z,7.73
2022-08-20T02:50:50.682Z,8.23
2022-08-20T02:53:18.364Z,7.87
2022-08-20T02:55:45.887Z,10.60
2022-08-20T02:58:13.903Z,9.23
2022-08-20T03:00:41.737Z,9.20
2022-08-20T03:03:10.662Z,10.03
2022-08-20T03:05:41.757Z,7.97
2022-08-20T03:08:12.292Z,10.60
2022-08-20T03:10:42.120Z,10.93
2022-08-20T03:13:12.197Z,14.00
2022-08-20T03:15:41.346Z,9.30
2022-08-20T03:18:09.209Z,10.00
2022-08-20T03:20:37.130Z,13.20
2022-08-20T03:23:08.596Z,12.40
2022-08-20T03:25:36.339Z,13.20
2022-08-20T03:28:04.302Z,18.30
2022-08-20T03:30:32.144Z,17.10
2022-08-20T03:32:59.961Z,17.63
2022-08-20T03:35:29.908Z,15.53
2022-08-20T03:37:57.769Z,19.87
2022-08-20T03:40:29.395Z,18.57
2022-08-20T03:42:57.262Z,20.67
2022-08-20T03:45:25.957Z,17.20
2022-08-20T03:47:54.046Z,15.50
2022-08-20T03:50:24.115Z,16.37
2022-08-20T03:52:51.862Z,19.30
2022-08-20T03:55:20.550Z,18.83
2022-08-20T03:57:51.996Z,19.40
2022-08-20T04:00:22.431Z,18.53
2022-08-20T04:02:49.993Z,20.27
2022-08-20T04:05:17.828Z,18.00
2022-08-20T04:07:45.677Z,20.10
2022-08-20T04:10:13.884Z,23.73
2022-08-20T04:12:48.644Z,21.43
2022-08-20T04:15:24.466Z,18.40
2022-08-20T04:17:52.715Z,20.90
2022-08-20T04:20:23.874Z,19.27
2022-08-20T04:22:58.299Z,22.60
2022-08-20T04:25:26.654Z,22.10
2022-08-20T04:27:55.218Z,18.53
2022-08-20T04:30:25.572Z,17.93
2022-08-20T04:32:53.377Z,19.43
2022-08-20T04:35:24.413Z,22.67
2022-08-20T04:37:59.262Z,17.93
2022-08-20T04:40:46.945Z,17.97
2022-08-20T04:43:14.947Z,20.67
2022-08-20T04:45:44.738Z,20.77
2022-08-20T04:48:15.192Z,19.10
2022-08-20T04:50:45.319Z,21.97
2022-08-20T04:53:14.167Z,22.20
2022-08-20T04:55:43.334Z,20.87
2022-08-20T04:58:14.417Z,21.80
2022-08-20T05:00:41.980Z,18.83
2022-08-20T05:03:11.201Z,22.00
2022-08-20T05:05:38.803Z,18.47
2022-08-20T05:08:06.634Z,18.87
2022-08-20T05:10:48.262Z,18.07
2022-08-20T05:13:15.891Z,20.10
2022-08-20T05:15:45.514Z,28.33
2022-08-20T05:18:14.459Z,18.40
2022-08-20T05:20:43.175Z,22.13
2022-08-20T05:23:12.657Z,17.63
2022-08-20T05:25:42.012Z,17.40
2022-08-20T05:28:12.597Z,18.90
2022-08-20T05:30:41.169Z,16.97
2022-08-20T05:33:09.881Z,19.23
2022-08-20T05:35:40.008Z,15.77
2022-08-20T05:38:10.433Z,16.80
2022-08-20T05:40:38.311Z,17.07
2022-08-20T05:43:06.022Z,18.63
2022-08-20T05:45:34.140Z,17.07
2022-08-20T05:48:05.666Z,17.13
2022-08-20T05:50:33.277Z,22.20
2022-08-20T05:53:02.370Z,20.17
2022-08-20T05:55:29.974Z,19.57
2022-08-20T05:57:58.648Z,23.17
2022-08-20T06:00:26.933Z,17.63
2022-08-20T06:03:12.236Z,20.47
2022-08-20T06:05:39.940Z,21.80
2022-08-20T06:08:10.213Z,16.73
2022-08-20T06:10:43.962Z,17.63
2022-08-20T06:13:14.023Z,17.33
2022-08-20T06:15:41.985Z,16.93
2022-08-20T06:18:27.377Z,23.10
2022-08-20T06:20:55.844Z,17.50
2022-08-20T06:23:25.325Z,15.77
2022-08-20T06:25:53.216Z,16.97
2022-08-20T06:28:21.215Z,17.03
2022-08-20T06:30:50.374Z,18.20
2022-08-20T06:33:17.935Z,15.90
2022-08-20T06:35:45.510Z,15.10
2022-08-20T06:38:14.675Z,15.90
2022-08-20T06:40:43.577Z,15.83
2022-08-20T06:43:11.920Z,16.13
2022-08-20T06:45:40.458Z,15.20
2022-08-20T06:48:14.986Z,15.33
2022-08-20T06:50:47.456Z,16.53
2022-08-20T06:53:17.624Z,20.67
2022-08-20T06:55:48.833Z,14.40
2022-08-20T06:58:36.976Z,16.30
2022-08-20T07:01:09.519Z,17.53
2022-08-20T07:03:39.122Z,12.30
2022-08-20T07:06:07.991Z,13.83
2022-08-20T07:08:36.356Z,16.50
2022-08-20T07:11:05.391Z,13.17
2022-08-20T07:13:33.079Z,13.53
2022-08-20T07:16:00.755Z,16.40
2022-08-20T07:18:29.191Z,14.83
2022-08-20T07:20:57.701Z,11.73
2022-08-20T07:23:25.913Z,10.37
2022-08-20T07:25:55.602Z,11.80
2022-08-20T07:28:28.594Z,9.93
2022-08-20T07:31:14.517Z,9.93
2022-08-20T07:33:44.909Z,14.43
2022-08-20T07:36:13.626Z,8.97
2022-08-20T07:38:41.328Z,13.13
2022-08-20T07:41:13.415Z,8.87
2022-08-20T07:43:44.536Z,9.83
2022-08-20T07:46:13.228Z,8.93
2022-08-20T07:48:46.090Z,7.60
2022-08-20T07:51:16.998Z,5.83
2022-08-20T07:53:46.436Z,9.70
2022-08-20T07:56:16.821Z,5.80
2022-08-20T07:58:50.187Z,8.20
2022-08-20T08:01:18.968Z,13.50
2022-08-20T08:03:49.909Z,12.20
2022-08-20T08:06:29.047Z,9.97
2022-08-20T08:08:58.900Z,8.27
2022-08-20T08:11:26.575Z,5.87
2022-08-20T08:13:55.586Z,9.60
2022-08-20T08:16:23.274Z,11.93
2022-08-20T08:18:56.316Z,9.70
2022-08-20T08:21:24.075Z,6.73
2022-08-20T08:23:53.455Z,8.20
2022-08-20T08:26:21.753Z,8.93
2022-08-20T08:28:49.381Z,7.37
2022-08-20T08:31:18.831Z,7.97
2022-08-20T08:33:46.522Z,6.60
2022-08-20T08:36:15.868Z,9.57
2022-08-20T08:38:45.200Z,10.30
2022-08-20T08:41:17.702Z,13.00
2022-08-20T08:43:47.781Z,7.00
2022-08-20T08:46:20.703Z,6.50
2022-08-20T08:48:49.497Z,7.70
2022-08-20T08:51:20.645Z,7.90
2022-08-20T08:53:54.827Z,10.13
2022-08-20T08:56:25.384Z,7.10
2022-08-20T08:58:55.628Z,11.70
2022-08-20T09:01:54.850Z,4.67
2022-08-20T09:04:13.371Z,4.50
2022-08-20T09:06:43.355Z,4.20
2022-08-20T09:09:17.439Z,5.53
2022-08-20T09:11:47.397Z,3.60
2022-08-20T09:14:15.112Z,6.43
2022-08-20T09:16:52.329Z,5.70
2022-08-20T09:19:21.386Z,10.50
2022-08-20T09:21:49.283Z,5.27
2022-08-20T09:24:16.898Z,5.70
2022-08-20T09:26:44.674Z,7.07
2022-08-20T09:29:12.321Z,6.17
2022-08-20T09:31:40.308Z,8.77
2022-08-20T09:34:09.652Z,6.37
2022-08-20T09:36:37.269Z,7.40
2022-08-20T09:39:04.983Z,7.90
2022-08-20T09:41:33.827Z,6.87
2022-08-20T09:44:02.642Z,11.13
2022-08-20T09:46:30.263Z,10.97
2022-08-20T09:48:57.820Z,5.80
2022-08-20T09:51:26.892Z,12.33
2022-08-20T09:53:54.547Z,9.47
2022-08-20T09:56:22.160Z,6.97
2022-08-20T09:58:51.864Z,10.90
2022-08-20T10:01:21.274Z,7.77
2022-08-20T10:03:49.677Z,8.43
2022-08-20T10:06:19.623Z,6.00
2022-08-20T10:08:50.244Z,9.90
2022-08-20T10:11:18.203Z,9.07
2022-08-20T10:13:45.995Z,7.00
2022-08-20T10:16:13.655Z,8.57
2022-08-20T10:18:41.656Z,8.57
2022-08-20T10:21:11.048Z,13.80
2022-08-20T10:23:38.701Z,12.77
2022-08-20T10:26:08.048Z,9.37
2022-08-20T10:28:35.668Z,10.40
2022-08-20T10:31:04.649Z,10.60
2022-08-20T10:33:32.464Z,11.03
2022-08-20T10:36:07.417Z,9.43
2022-08-20T10:38:35.052Z,14.17
2022-08-20T10:41:02.700Z,11.03
2022-08-20T10:43:31.753Z,6.83
2022-08-20T10:45:59.711Z,12.43
2022-08-20T10:48:27.790Z,10.20
2022-08-20T10:50:55.887Z,7.20
2022-08-20T10:53:23.576Z,9.37
2022-08-20T10:55:51.417Z,5.53
2022-08-20T10:58:19.022Z,13.90
2022-08-20T11:00:52.214Z,6.87
2022-08-20T11:03:20.685Z,11.30
2022-08-20T11:05:48.333Z,9.80
2022-08-20T11:08:15.997Z,11.97
2022-08-20T11:11:01.558Z,7.93
2022-08-20T11:13:29.191Z,18.83
2022-08-20T11:15:58.116Z,5.20
2022-08-20T11:18:25.845Z,6.97
2022-08-20T11:20:53.762Z,8.97
2022-08-20T11:23:21.582Z,8.40
2022-08-20T11:25:49.650Z,8.83
2022-08-20T11:28:17.383Z,8.40
2022-08-20T11:31:01.257Z,9.40
2022-08-20T11:33:29.321Z,7.77
2022-08-20T11:35:57.348Z,11.53
2022-08-20T11:38:24.909Z,8.50
2022-08-20T11:40:52.622Z,11.97
2022-08-20T11:43:20.311Z,12.40
2022-08-20T11:45:51.097Z,9.60
2022-08-20T11:48:20.067Z,11.10
2022-08-20T11:50:48.188Z,7.73
2022-08-20T11:53:15.957Z,6.63
2022-08-20T11:55:43.661Z,8.53
2022-08-20T11:58:11.332Z,8.43
2022-08-20T12:00:38.926Z,10.30
2022-08-20T12:03:09.041Z,8.63
2022-08-20T12:05:39.016Z,12.47
2022-08-20T12:08:08.328Z,10.73
2022-08-20T12:10:36.038Z,10.53
2022-08-20T12:13:04.732Z,7.90
2022-08-20T12:15:32.879Z,11.83
2022-08-20T12:18:01.152Z,7.50
2022-08-20T12:20:28.877Z,14.80
2022-08-20T12:22:58.942Z,6.67
2022-08-20T12:25:27.096Z,8.50
2022-08-20T12:27:54.730Z,6.50
2022-08-20T12:30:25.123Z,6.47
2022-08-20T12:32:53.014Z,7.40
2022-08-20T12:35:21.207Z,6.80
2022-08-20T12:37:50.651Z,11.13
2022-08-20T12:40:32.110Z,6.90
2022-08-20T12:43:01.285Z,6.37
2022-08-20T12:45:29.130Z,6.40
2022-08-20T12:48:02.195Z,6.13
2022-08-20T12:50:31.767Z,8.23
2022-08-20T12:53:00.109Z,7.00
2022-08-20T12:55:29.072Z,6.93
2022-08-20T12:58:00.239Z,8.10
2022-08-20T13:00:30.345Z,6.03
2022-08-20T13:03:01.555Z,7.83
2022-08-20T13:05:29.995Z,6.00
2022-08-20T13:07:58.074Z,8.23
2022-08-20T13:10:27.297Z,9.43
2022-08-20T13:12:56.788Z,7.50
2022-08-20T13:15:25.536Z,5.40
2022-08-20T13:17:53.563Z,10.03
2022-08-20T13:20:21.846Z,10.70
2022-08-20T13:22:49.588Z,8.13
2022-08-20T13:25:17.212Z,10.10
2022-08-20T13:27:45.294Z,10.43
2022-08-20T13:30:17.441Z,10.97
2022-08-20T13:32:45.632Z,9.33
2022-08-20T13:35:14.044Z,6.77
2022-08-20T13:37:43.146Z,6.30
2022-08-20T13:40:12.128Z,7.23
2022-08-20T13:42:39.865Z,6.43
2022-08-20T13:45:09.108Z,7.97
2022-08-20T13:47:39.659Z,15.40
2022-08-20T13:50:10.257Z,7.40
2022-08-20T13:52:39.360Z,5.90
2022-08-20T13:55:11.990Z,8.93
2022-08-20T13:57:40.214Z,9.10
2022-08-20T14:00:11.875Z,7.83
2022-08-20T14:02:41.450Z,10.23
2022-08-20T14:05:10.496Z,6.10
2022-08-20T14:07:39.630Z,4.80
2022-08-20T14:10:10.000Z,9.03
2022-08-20T14:12:37.696Z,5.10
2022-08-20T14:15:06.765Z,7.40
2022-08-20T14:17:36.056Z,7.27
2022-08-20T14:20:08.762Z,7.10
2022-08-20T14:22:37.049Z,9.17
2022-08-20T14:25:06.078Z,7.83
2022-08-20T14:27:34.594Z,7.60
2022-08-20T14:30:03.269Z,5.67
2022-08-20T14:32:31.151Z,6.37
2022-08-20T14:34:59.425Z,7.97
2022-08-20T14:37:31.462Z,4.23
2022-08-20T14:40:00.710Z,4.60
2022-08-20T14:42:29.250Z,9.80
2022-08-20T14:44:57.640Z,5.53
2022-08-20T14:47:27.067Z,6.53
2022-08-20T14:49:57.800Z,7.83
2022-08-20T14:52:28.171Z,5.17
2022-08-20T14:54:57.387Z,6.57
2022-08-20T14:57:25.133Z,6.70
2022-08-20T14:59:53.965Z,10.53
2022-08-20T15:02:22.195Z,4.77
2022-08-20T15:04:54.478Z,13.67
2022-08-20T15:07:25.937Z,4.90
2022-08-20T15:09:54.075Z,6.23
2022-08-20T15:12:23.291Z,9.83
2022-08-20T15:14:50.911Z,8.40
2022-08-20T15:17:20.085Z,9.23
2022-08-20T15:19:47.733Z,6.33
2022-08-20T15:22:15.640Z,9.07
2022-08-20T15:24:43.524Z,7.67
2022-08-20T15:27:12.991Z,5.73
2022-08-20T15:29:41.997Z,5.77
2022-08-20T15:32:09.606Z,6.97
2022-08-20T15:34:37.372Z,7.53
2022-08-20T15:37:09.139Z,6.93
2022-08-20T15:39:37.049Z,8.77
2022-08-20T15:42:05.344Z,3.73
2022-08-20T15:44:33.022Z,6.83
2022-08-20T15:47:15.996Z,5.10
2022-08-20T15:49:44.283Z,8.33
2022-08-20T15:52:12.253Z,5.17
2022-08-20T15:54:40.265Z,9.97
2022-08-20T15:57:11.539Z,6.00
2022-08-20T15:59:47.971Z,5.70
2022-08-20T16:02:34.575Z,5.57
2022-08-20T16:05:12.343Z,6.83
2022-08-20T16:07:45.041Z,6.57
2022-08-20T16:10:18.223Z,3.67
2022-08-20T16:12:49.884Z,7.40
2022-08-20T16:15:22.864Z,5.67
2022-08-20T16:17:55.546Z,5.13
2022-08-20T16:20:25.917Z,6.03
2022-08-20T16:23:03.566Z,8.27
2022-08-20T16:25:37.683Z,6.90
2022-08-20T16:28:11.137Z,12.10
2022-08-20T16:30:41.366Z,5.03
2022-08-20T16:33:17.433Z,9.63
2022-08-20T16:35:49.769Z,3.97
2022-08-20T16:38:23.340Z,6.20
2022-08-20T16:40:52.876Z,4.53
2022-08-20T16:43:22.943Z,3.80
2022-08-20T16:45:55.394Z,5.77
2022-08-20T16:48:32.155Z,5.30
2022-08-20T16:51:02.954Z,5.47
2022-08-20T16:53:30.532Z,9.00
2022-08-20T16:55:58.433Z,4.47
2022-08-20T16:58:26.178Z,3.77
2022-08-20T17:01:06.849Z,3.83
2022-08-20T17:03:40.492Z,3.97
2022-08-20T17:06:17.200Z,4.63
2022-08-20T17:08:49.976Z,6.30
2022-08-20T17:11:25.062Z,5.17
2022-08-20T17:14:04.025Z,4.33
2022-08-20T17:16:34.850Z,4.67
2022-08-20T17:19:14.709Z,7.83
2022-08-20T17:21:42.992Z,5.13
2022-08-20T17:24:16.599Z,5.10
2022-08-20T17:26:46.883Z,7.23
2022-08-20T17:29:17.340Z,5.57
2022-08-20T17:31:47.401Z,4.63
2022-08-20T17:34:18.197Z,5.20
2022-08-20T17:36:51.510Z,7.47
2022-08-20T17:39:20.936Z,5.33
2022-08-20T17:41:50.619Z,6.60
2022-08-20T17:44:24.605Z,7.27
2022-08-20T17:46:53.741Z,5.53
2022-08-20T17:49:35.050Z,3.23
2022-08-20T17:52:06.760Z,3.93
2022-08-20T17:54:37.567Z,3.27
2022-08-20T17:57:08.206Z,4.97
2022-08-20T18:00:00.139Z,5.00
2022-08-20T18:02:26.145Z,6.30
2022-08-20T18:04:56.204Z,4.80
2022-08-20T18:07:26.767Z,5.93
2022-08-20T18:09:59.608Z,7.27
2022-08-20T18:12:33.603Z,7.53
2022-08-20T18:15:07.703Z,5.20
2022-08-20T18:18:00.912Z,5.17
2022-08-20T18:20:40.864Z,6.20
2022-08-20T18:23:12.882Z,7.20
2022-08-20T18:25:45.701Z,5.97
2022-08-20T18:28:17.139Z,8.60
2022-08-20T18:30:49.513Z,4.83
2022-08-20T18:33:26.494Z,5.40
2022-08-20T18:36:05.336Z,5.40
2022-08-20T18:38:34.485Z,10.20
2022-08-20T18:41:14.458Z,5.83
2022-08-20T18:43:43.151Z,6.20
2022-08-20T18:46:20.652Z,4.70
2022-08-20T18:48:57.900Z,10.43
2022-08-20T18:51:33.617Z,9.70
2022-08-20T18:54:01.935Z,4.80
2022-08-20T18:56:36.344Z,4.20
2022-08-20T18:59:08.414Z,3.80
2022-08-20T19:01:37.710Z,8.57
2022-08-20T19:04:17.825Z,6.97
2022-08-20T19:06:52.459Z,4.80
2022-08-20T19:09:38.191Z,6.03
2022-08-20T19:12:31.957Z,9.47
2022-08-20T19:15:03.379Z,5.63
2022-08-20T19:17:53.133Z,3.50
2022-08-20T19:20:23.867Z,4.83
2022-08-20T19:22:54.311Z,5.37
2022-08-20T19:25:28.201Z,9.13
2022-08-20T19:27:58.249Z,5.70
2022-08-20T19:30:35.465Z,5.47
2022-08-20T19:33:03.645Z,8.10
2022-08-20T19:35:31.342Z,7.90
2022-08-20T19:38:02.206Z,7.23
2022-08-20T19:40:33.002Z,8.53
2022-08-20T19:43:08.507Z,6.10
2022-08-20T19:45:39.925Z,6.60
2022-08-20T19:48:16.206Z,7.03
2022-08-20T19:50:51.433Z,5.83
2022-08-20T19:53:30.481Z,6.77
2022-08-20T19:56:01.423Z,5.67
2022-08-20T19:58:31.126Z,4.50
2022-08-20T20:00:59.431Z,9.73
2022-08-20T20:03:29.310Z,7.07
2022-08-20T20:05:58.899Z,5.07
2022-08-20T20:08:30.382Z,10.43
2022-08-20T20:11:00.667Z,4.90
2022-08-20T20:13:33.283Z,6.87
2022-08-20T20:16:05.982Z,8.00
2022-08-20T20:18:37.836Z,8.50
2022-08-20T20:21:16.119Z,7.50
2022-08-20T20:23:52.214Z,7.60
2022-08-20T20:26:20.779Z,13.57
2022-08-20T20:28:50.338Z,6.13
2022-08-20T20:31:23.669Z,8.50
2022-08-20T20:33:53.152Z,10.07
2022-08-20T20:36:33.958Z,6.40
2022-08-20T20:39:07.267Z,8.13
2022-08-20T20:41:37.907Z,10.13
2022-08-20T20:44:08.811Z,8.83
2022-08-20T20:46:37.626Z,11.17
2022-08-20T20:49:14.168Z,7.27
2022-08-20T20:51:44.210Z,6.80
2022-08-20T20:54:26.602Z,8.37
2022-08-20T20:57:00.071Z,8.10
2022-08-20T20:59:27.687Z,7.93
2022-08-20T21:01:55.240Z,6.77
2022-08-20T21:04:24.514Z,6.43
2022-08-20T21:06:53.848Z,7.17
2022-08-20T21:09:24.146Z,9.03
2022-08-20T21:11:51.701Z,16.13
2022-08-20T21:14:19.729Z,6.67
2022-08-20T21:16:47.697Z,6.80
2022-08-20T21:19:15.868Z,7.30
2022-08-20T21:21:43.946Z,7.47
2022-08-20T21:24:11.720Z,5.90
2022-08-20T21:26:40.884Z,9.10
2022-08-20T21:29:10.292Z,9.83
2022-08-20T21:31:43.737Z,6.40
2022-08-20T21:34:11.884Z,7.00
2022-08-20T21:36:39.665Z,6.97
2022-08-20T21:39:07.473Z,6.97
2022-08-20T21:41:35.301Z,12.77
2022-08-20T21:44:10.886Z,6.10
2022-08-20T21:46:38.449Z,7.13
2022-08-20T21:49:06.042Z,12.23
2022-08-20T21:51:33.611Z,8.07
2022-08-20T21:54:01.348Z,8.53
2022-08-20T21:56:29.136Z,10.37
2022-08-20T21:59:00.109Z,10.10
2022-08-20T22:01:29.763Z,7.40
2022-08-20T22:03:57.342Z,10.37
2022-08-20T22:06:25.076Z,11.87
2022-08-20T22:08:52.610Z,9.80
2022-08-20T22:11:20.654Z,9.90
2022-08-20T22:13:48.257Z,9.10
2022-08-20T22:16:18.394Z,10.73
2022-08-20T22:18:48.341Z,10.50
2022-08-20T22:21:22.645Z,10.87
2022-08-20T22:23:50.717Z,8.27
2022-08-20T22:26:19.279Z,12.30
2022-08-20T22:28:48.873Z,8.80
2022-08-20T22:31:20.461Z,8.90
2022-08-20T22:33:49.326Z,11.77
2022-08-20T22:36:16.900Z,10.30
2022-08-20T22:38:44.420Z,11.50
2022-08-20T22:41:15.850Z,13.73
2022-08-20T22:43:55.665Z,10.50
2022-08-20T22:46:26.441Z,10.33
2022-08-20T22:48:56.183Z,13.60
2022-08-20T22:51:25.602Z,14.53
2022-08-20T22:53:53.230Z,15.27
2022-08-20T22:56:21.991Z,16.07
2022-08-20T22:58:50.960Z,15.17
2022-08-20T23:01:18.898Z,16.10
2022-08-20T23:03:46.716Z,14.90
2022-08-20T23:06:15.738Z,17.47
2022-08-20T23:08:44.953Z,13.87
2022-08-20T23:11:12.622Z,12.70
2022-08-20T23:13:40.119Z,13.03
2022-08-20T23:16:08.116Z,14.73
2022-08-20T23:18:35.642Z,13.13
2022-08-20T23:21:03.246Z,14.80
2022-08-20T23:23:32.177Z,12.20
2022-08-20T23:25:59.835Z,12.07
2022-08-20T23:28:27.630Z,12.00
2022-08-20T23:30:55.200Z,14.13
2022-08-20T23:33:22.763Z,15.77
2022-08-20T23:35:50.384Z,17.27
2022-08-20T23:38:18.002Z,20.30
2022-08-20T23:40:46.899Z,20.07
2022-08-20T23:43:14.728Z,18.77
2022-08-20T23:45:42.548Z,17.70
2022-08-20T23:48:10.423Z,19.50
2022-08-20T23:50:39.241Z,16.47
2022-08-20T23:53:06.922Z,14.50
2022-08-20T23:55:34.786Z,16.37
2022-08-20T23:58:03.778Z,16.00
